createdAt,value
2022-08-05T00:00:04.549Z,0
2022-08-05T00:05:06.217Z,0
2022-08-05T00:10:03.024Z,0
2022-08-05T00:16:00.395Z,0
2022-08-05T00:20:03.719Z,0
2022-08-05T00:25:13.029Z,0
2022-08-05T00:30:04.139Z,0
2022-08-05T00:35:08.057Z,0
2022-08-05T00:40:09.606Z,0
2022-08-05T00:45:03.355Z,0
2022-08-05T00:50:03.945Z,0
2022-08-05T00:55:04.318Z,0
2022-08-05T01:00:03.616Z,0
2022-08-05T01:05:10.364Z,0
2022-08-05T01:10:09.246Z,0
2022-08-05T01:15:05.310Z,0
2022-08-05T01:20:03.963Z,0
2022-08-05T01:25:04.779Z,0
2022-08-05T01:30:03.973Z,0
2022-08-05T01:35:02.393Z,0
2022-08-05T01:40:02.920Z,0
2022-08-05T01:45:03.539Z,0
2022-08-05T01:50:03.323Z,0
2022-08-05T01:55:08.631Z,0
2022-08-05T02:00:02.834Z,0
2022-08-05T02:05:03.038Z,0
2022-08-05T02:10:03.426Z,0
2022-08-05T02:15:03.534Z,0
2022-08-05T02:20:02.489Z,0
2022-08-05T02:25:03.386Z,0
2022-08-05T02:30:04.410Z,0
2022-08-05T02:35:19.239Z,0
2022-08-05T02:40:04.214Z,0
2022-08-05T02:45:02.845Z,0
2022-08-05T02:50:03.490Z,0.23
2022-08-05T02:55:12.547Z,0.57
2022-08-05T03:00:03.389Z,1.36
2022-08-05T03:05:03.090Z,3.17
2022-08-05T03:10:02.506Z,6.9
2022-08-05T03:15:09.379Z,5
2022-08-05T03:20:02.783Z,13.33
2022-08-05T03:26:04.094Z,28.33
2022-08-05T03:30:09.411Z,58.33
2022-08-05T03:35:04.824Z,101.67
2022-08-05T03:40:05.293Z,151.67
2022-08-05T03:45:23.461Z,215
2022-08-05T03:50:02.339Z,311.67
2022-08-05T03:56:36.056Z,413.33
2022-08-05T04:00:02.803Z,518.33
2022-08-05T04:05:03.586Z,656.67
2022-08-05T04:10:03.711Z,846.67
2022-08-05T04:15:04.235Z,1053.33
2022-08-05T04:20:05.168Z,1156.67
2022-08-05T04:25:03.091Z,1315
2022-08-05T04:30:03.647Z,1668.33
2022-08-05T04:35:06.028Z,2320
2022-08-05T04:40:04.027Z,2730
2022-08-05T04:45:03.017Z,2850
2022-08-05T04:50:11.803Z,3140
2022-08-05T04:55:15.695Z,3101.67
2022-08-05T05:00:02.661Z,2803.33
2022-08-05T05:05:26.657Z,2758.33
2022-08-05T05:10:03.184Z,2148.33
2022-08-05T05:15:04.281Z,2151.67
2022-08-05T05:20:05.477Z,1808.33
2022-08-05T05:25:17.836Z,1725
2022-08-05T05:30:05.477Z,1958.33
2022-08-05T05:35:03.335Z,2376.67
2022-08-05T05:40:02.929Z,2763.33
2022-08-05T05:45:03.765Z,3195
2022-08-05T05:50:04.530Z,3531.67
2022-08-05T05:55:15.062Z,3301.67
2022-08-05T06:00:10.342Z,6715
2022-08-05T06:05:16.488Z,5336.67
2022-08-05T06:10:10.650Z,10086.67
2022-08-05T06:15:03.543Z,7560
2022-08-05T06:20:02.697Z,8751.67
2022-08-05T06:26:25.249Z,6440
2022-08-05T06:30:21.568Z,11436.67
2022-08-05T06:36:08.113Z,8151.67
2022-08-05T06:40:03.014Z,7371.67
2022-08-05T06:45:09.401Z,5806.67
2022-08-05T06:50:05.780Z,6111.67
2022-08-05T06:55:05.176Z,6828.33
2022-08-05T07:00:09.970Z,6438.33
2022-08-05T07:05:02.684Z,5870
2022-08-05T07:10:04.014Z,4770
2022-08-05T07:15:03.648Z,4625
2022-08-05T07:20:34.226Z,6056.67
2022-08-05T07:25:55.796Z,4720
2022-08-05T07:30:34.566Z,4186.67
2022-08-05T07:36:19.947Z,4228.33
2022-08-05T07:40:35.549Z,3108.33
2022-08-05T07:45:03.097Z,2015
2022-08-05T07:50:07.014Z,1841.67
2022-08-05T07:55:44.746Z,1740
2022-08-05T08:00:02.847Z,2273.33
2022-08-05T08:05:04.316Z,2988.33
2022-08-05T08:10:02.973Z,4328.33
2022-08-05T08:15:04.737Z,5685
2022-08-05T08:20:45.629Z,6135
2022-08-05T08:25:15.925Z,7111.67
2022-08-05T08:30:30.274Z,6755
2022-08-05T08:35:03.313Z,7246.67
2022-08-05T08:40:04.605Z,8415
2022-08-05T08:45:30.783Z,6295
2022-08-05T08:50:52.740Z,4678.33
2022-08-05T08:56:06.399Z,4033.33
2022-08-05T09:00:04.633Z,4620
2022-08-05T09:06:08.243Z,4703.33
2022-08-05T09:10:05.507Z,3966.67
2022-08-05T09:15:06.676Z,4190
2022-08-05T09:20:05.833Z,5096.67
2022-08-05T09:25:59.743Z,5485
2022-08-05T09:30:06.864Z,5573.33
2022-08-05T09:35:03.240Z,4481.67
2022-08-05T09:40:03.494Z,3263.33
2022-08-05T09:46:06.542Z,4368.33
2022-08-05T09:50:03.854Z,10985
2022-08-05T09:56:14.176Z,44806.67
2022-08-05T10:00:07.889Z,79765.08
2022-08-05T10:05:03.180Z,75060.86
2022-08-05T10:10:18.055Z,62272.5
2022-08-05T10:15:03.653Z,7738.33
2022-08-05T10:20:11.136Z,4398.33
2022-08-05T10:25:02.476Z,3113.33
2022-08-05T10:33:03.175Z,5275
2022-08-05T10:35:02.920Z,6543.33
2022-08-05T10:40:27.868Z,7621.67
2022-08-05T10:45:43.208Z,6955
2022-08-05T10:50:37.802Z,12640
2022-08-05T10:55:05.030Z,37276.67
2022-08-05T11:00:21.005Z,28336.67
2022-08-05T11:05:03.254Z,33320
2022-08-05T11:10:10.387Z,11818.33
2022-08-05T11:15:21.245Z,7311.67
2022-08-05T11:20:18.682Z,6303.33
2022-08-05T11:25:16.699Z,6831.67
2022-08-05T11:30:02.706Z,36096.67
2022-08-05T11:35:03.284Z,12281.67
2022-08-05T11:40:04.763Z,33273.33
2022-08-05T11:45:03.155Z,72786.02
2022-08-05T11:50:03.508Z,70886.72
2022-08-05T11:55:12.930Z,62031.72
2022-08-05T12:00:03.359Z,70782.5
2022-08-05T12:05:06.699Z,66673.05
2022-08-05T12:10:12.758Z,74956.64
2022-08-05T12:15:03.671Z,28563.33
2022-08-05T12:20:34.597Z,33193.33
2022-08-05T12:25:04.547Z,73109.45
2022-08-05T12:30:04.049Z,72575.78
2022-08-05T12:35:04.664Z,64331.72
2022-08-05T12:40:29.928Z,63539.3
2022-08-05T12:45:09.966Z,63312.89
2022-08-05T12:50:07.438Z,67384.61
2022-08-05T12:55:04.436Z,66053.13
2022-08-05T13:02:10.462Z,64951.64
2022-08-05T13:05:03.896Z,65517.66
2022-08-05T13:10:03.151Z,62524.06
2022-08-05T13:15:35.720Z,60768.52
2022-08-05T13:20:02.960Z,63877.11
2022-08-05T13:25:51.362Z,67142.03
2022-08-05T13:30:38.910Z,8528.33
2022-08-05T13:35:02.956Z,7493.33
2022-08-05T13:40:52.238Z,8721.67
2022-08-05T13:45:06.433Z,8475
2022-08-05T13:50:17.086Z,8658.33
2022-08-05T13:55:10.252Z,5973.33
2022-08-05T14:00:03.247Z,5320
2022-08-05T14:05:02.681Z,5591.67
2022-08-05T14:10:02.502Z,4931.67
2022-08-05T14:16:11.850Z,4185
2022-08-05T14:20:08.638Z,3770
2022-08-05T14:25:30.067Z,4471.67
2022-08-05T14:30:04.769Z,6375
2022-08-05T14:35:02.759Z,32563.33
2022-08-05T14:40:04.519Z,10468.33
2022-08-05T14:45:03.573Z,43633.33
2022-08-05T14:50:19.632Z,35276.67
2022-08-05T14:55:03.558Z,38646.67
2022-08-05T15:00:03.161Z,37940
2022-08-05T15:05:14.116Z,9223.33
2022-08-05T15:10:04.172Z,6535
2022-08-05T15:15:02.983Z,5553.33
2022-08-05T15:20:03.620Z,8246.67
2022-08-05T15:25:14.829Z,13391.67
2022-08-05T15:30:03.621Z,7643.33
2022-08-05T15:35:12.831Z,5916.67
2022-08-05T15:41:58.670Z,5588.33
2022-08-05T15:45:02.821Z,12623.33
2022-08-05T15:50:04.231Z,6231.67
2022-08-05T15:55:04.176Z,6548.33
2022-08-05T16:00:03.489Z,4468.33
2022-08-05T16:05:05.383Z,5335
2022-08-05T16:10:02.843Z,5883.33
2022-08-05T16:15:02.551Z,3721.67
2022-08-05T16:20:12.607Z,1921.67
2022-08-05T16:25:10.163Z,1723.33
2022-08-05T16:30:03.632Z,1555
2022-08-05T16:35:02.259Z,2201.67
2022-08-05T16:40:28.579Z,3090
2022-08-05T16:46:24.978Z,1998.33
2022-08-05T16:50:03.971Z,1878.33
2022-08-05T16:55:04.664Z,1365
2022-08-05T17:00:10.713Z,1685
2022-08-05T17:05:03.464Z,2135
2022-08-05T17:10:03.191Z,681.67
2022-08-05T17:15:03.077Z,271.67
2022-08-05T17:20:03.413Z,733.33
2022-08-05T17:25:41.183Z,715
2022-08-05T17:30:03.510Z,466.67
2022-08-05T17:35:02.723Z,366.67
2022-08-05T17:40:03.419Z,1318.33
2022-08-05T17:45:21.487Z,475
2022-08-05T17:50:10.548Z,191.67
2022-08-05T17:55:08.378Z,121.67
2022-08-05T18:00:07.278Z,163.33
2022-08-05T18:05:08.611Z,251.67
2022-08-05T18:10:02.296Z,240
2022-08-05T18:15:05.917Z,160
2022-08-05T18:20:04.257Z,138.33
2022-08-05T18:25:03.294Z,131.67
2022-08-05T18:30:07.010Z,63.33
2022-08-05T18:35:05.416Z,95
2022-08-05T18:40:31.375Z,141.67
2022-08-05T18:45:05.324Z,181.67
2022-08-05T18:50:03.250Z,120
2022-08-05T18:55:03.581Z,63.33
2022-08-05T19:00:19.918Z,38.33
2022-08-05T19:06:13.650Z,23.33
2022-08-05T19:10:11.232Z,11.67
2022-08-05T19:15:03.179Z,5
2022-08-05T19:20:03.177Z,6.11
2022-08-05T19:25:03.337Z,3.85
2022-08-05T19:30:04.124Z,1.7
2022-08-05T19:35:06.839Z,0.68
2022-08-05T19:40:10.971Z,0.23
2022-08-05T19:45:06.370Z,0
2022-08-05T19:50:03.425Z,0
2022-08-05T19:56:12.288Z,0
2022-08-05T20:00:06.917Z,0
2022-08-05T20:05:24.832Z,0
2022-08-05T20:10:14.761Z,0
2022-08-05T20:15:03.246Z,0
2022-08-05T20:20:11.390Z,0
2022-08-05T20:25:03.042Z,0
2022-08-05T20:30:02.610Z,0
2022-08-05T20:35:02.947Z,0
2022-08-05T20:40:03.068Z,0
2022-08-05T20:45:03.651Z,0
2022-08-05T20:50:07.742Z,0
2022-08-05T20:56:10.154Z,0
2022-08-05T21:00:52.436Z,0
2022-08-05T21:05:03.981Z,0
2022-08-05T21:10:04.986Z,0
2022-08-05T21:15:03.731Z,0
2022-08-05T21:20:10.993Z,0
2022-08-05T21:25:06.226Z,0
2022-08-05T21:30:03.376Z,0
2022-08-05T21:35:56.146Z,0
2022-08-05T21:40:14.019Z,0
2022-08-05T21:45:04.149Z,0
2022-08-05T21:50:02.749Z,0
2022-08-05T21:55:07.289Z,0
2022-08-05T22:00:11.817Z,0
2022-08-05T22:05:05.495Z,0
2022-08-05T22:10:03.310Z,0
2022-08-05T22:15:02.892Z,0
2022-08-05T22:20:17.422Z,0
2022-08-05T22:25:02.536Z,0
2022-08-05T22:30:04.520Z,0
2022-08-05T22:35:03.166Z,0
2022-08-05T22:40:03.237Z,0
2022-08-05T22:45:02.591Z,0
2022-08-05T22:50:18.855Z,0
2022-08-05T22:55:21.717Z,0
2022-08-05T23:00:02.845Z,0
2022-08-05T23:05:05.485Z,0
2022-08-05T23:10:03.191Z,0
2022-08-05T23:15:03.289Z,0
2022-08-05T23:20:02.758Z,0
2022-08-05T23:25:02.258Z,0
2022-08-05T23:30:10.967Z,0
2022-08-05T23:35:03.427Z,0
2022-08-05T23:40:11.030Z,0
2022-08-05T23:45:03.402Z,0
2022-08-05T23:50:09.926Z,0
2022-08-05T23:55:09.278Z,0
